Terminal Aerodrome Forecast
Issued by NWS

Home | Current Version | Previous Version | Text Only | Print | Product List | Glossary On
Versions: 1 2 3 4 5 6 7 8 9 10 11 12 13 14 15 16 17
821
FTPA31 PHFO 252325
TAFHJH
TAF
PHJH 252325Z 2600/2624 04016KT P6SM VCSH SCT025 BKN045
     FM260400 04013KT P6SM SCT025 SCT045
     FM261900 06013KT P6SM VCSH SCT020 BKN040=

USA.gov is the U.S. government's official web portal to all federal, state and local government web resources and services.